Time;durP1;ratioP1;P1;durP2;ratioP2;P2;SDS_P1;SDS_P2;PMS_P1;PMS_P2;Temp;Humidity;BMP_temperature;BMP_pressure;BME280_temperature;BME280_humidity;BME280_pressure;Samples;Min_cycle;Max_cycle;Signal;HPM_P1;HPM_P2
2022/07/23 00:00:30;;;;;;;6.85;5.72;;;23.00;80.00;;;;;;5055120;28;20029;-68
2022/07/23 00:02:56;;;;;;;8.52;5.30;;;23.00;79.80;;;;;;5054892;28;20355;-68
2022/07/23 00:05:21;;;;;;;5.82;5.00;;;23.00;79.80;;;;;;5053982;28;20474;-68
2022/07/23 00:07:47;;;;;;;9.00;5.70;;;23.00;79.90;;;;;;5050028;28;20020;-68
2022/07/23 00:10:12;;;;;;;7.13;6.25;;;23.00;80.10;;;;;;5046065;28;20031;-68
2022/07/23 00:12:39;;;;;;;8.38;5.88;;;22.80;80.10;;;;;;5034952;28;20455;-67
2022/07/23 00:15:08;;;;;;;6.13;5.03;;;22.80;80.00;;;;;;5048737;28;20033;-67
2022/07/23 00:17:34;;;;;;;6.25;5.07;;;22.80;79.90;;;;;;5063750;28;20430;-68
2022/07/23 00:20:00;;;;;;;5.97;5.43;;;22.80;80.00;;;;;;5054059;28;20545;-69
2022/07/23 00:22:25;;;;;;;7.07;5.72;;;22.80;79.90;;;;;;5052724;28;20112;-67
2022/07/23 00:24:51;;;;;;;6.88;4.95;;;22.80;79.80;;;;;;5053380;28;20108;-67
2022/07/23 00:27:17;;;;;;;8.27;4.82;;;22.80;79.90;;;;;;5053544;28;20355;-67
2022/07/23 00:29:42;;;;;;;6.38;5.13;;;22.70;80.00;;;;;;5053849;28;20504;-70
2022/07/23 00:32:08;;;;;;;7.38;4.95;;;22.70;80.00;;;;;;5052922;28;20021;-67
2022/07/23 00:34:33;;;;;;;6.20;4.80;;;22.60;80.20;;;;;;5054273;28;20021;-67
2022/07/23 00:36:59;;;;;;;5.57;4.03;;;22.70;80.20;;;;;;5053294;28;20106;-68
2022/07/23 00:39:24;;;;;;;7.15;4.45;;;22.70;80.20;;;;;;5044747;28;20027;-68
2022/07/23 00:41:51;;;;;;;4.57;3.80;;;22.70;80.30;;;;;;5040616;28;20567;-67
2022/07/23 00:44:23;;;;;;;6.30;4.28;;;22.70;80.30;;;;;;5031967;28;20029;-67
2022/07/23 00:46:57;;;;;;;8.40;4.63;;;22.70;80.30;;;;;;5033161;28;20066;-68
2022/07/23 00:49:25;;;;;;;5.53;4.00;;;22.70;80.50;;;;;;5033789;28;20022;-68
2022/07/23 00:51:51;;;;;;;6.30;5.07;;;22.70;80.60;;;;;;5033831;28;20525;-67
2022/07/23 00:54:18;;;;;;;7.95;4.80;;;22.60;80.60;;;;;;5034005;28;20471;-68
2022/07/23 00:56:45;;;;;;;6.70;5.32;;;22.60;80.50;;;;;;5034095;28;20052;-68
2022/07/23 00:59:11;;;;;;;6.13;4.07;;;22.60;80.40;;;;;;5033852;28;20025;-68
2022/07/23 01:01:37;;;;;;;6.40;4.78;;;22.60;80.50;;;;;;5032719;28;20379;-67
2022/07/23 01:04:02;;;;;;;6.70;4.47;;;22.50;80.50;;;;;;5033829;28;20441;-68
2022/07/23 01:06:28;;;;;;;7.20;4.30;;;22.50;80.60;;;;;;5033592;28;20018;-67
2022/07/23 01:08:55;;;;;;;6.30;4.82;;;22.50;80.70;;;;;;5033817;28;20378;-67
2022/07/23 01:11:22;;;;;;;5.72;4.43;;;22.50;80.80;;;;;;5033997;28;20148;-67
2022/07/23 01:13:47;;;;;;;5.90;4.47;;;22.50;80.80;;;;;;5033644;28;20028;-67
2022/07/23 01:16:13;;;;;;;6.10;4.90;;;22.50;80.70;;;;;;5033850;28;20021;-67
2022/07/23 01:18:39;;;;;;;7.35;5.40;;;22.50;80.70;;;;;;5032509;28;20475;-67
2022/07/23 01:21:05;;;;;;;7.82;4.80;;;22.50;80.70;;;;;;5033508;28;20026;-68
2022/07/23 01:23:30;;;;;;;8.00;5.22;;;22.40;80.70;;;;;;5033365;28;20040;-68
2022/07/23 01:25:56;;;;;;;6.72;5.07;;;22.40;80.50;;;;;;5033578;28;20030;-67
2022/07/23 01:28:21;;;;;;;6.80;5.00;;;22.50;80.80;;;;;;5033879;28;20390;-68
2022/07/23 01:30:47;;;;;;;5.93;4.80;;;22.40;80.90;;;;;;5033581;28;20037;-67
2022/07/23 01:33:14;;;;;;;7.30;5.28;;;22.30;80.90;;;;;;5033567;28;20051;-67
2022/07/23 01:35:39;;;;;;;8.10;4.95;;;22.40;80.90;;;;;;5032896;28;20498;-67
2022/07/23 01:38:05;;;;;;;6.00;4.38;;;22.30;81.00;;;;;;5033534;28;20041;-67
2022/07/23 01:40:31;;;;;;;6.20;5.53;;;22.40;81.20;;;;;;5033237;28;20056;-67
2022/07/23 01:42:57;;;;;;;8.40;5.78;;;22.40;81.10;;;;;;5032459;28;20092;-67
2022/07/23 01:45:22;;;;;;;10.20;5.15;;;22.30;81.10;;;;;;5033065;28;20475;-68
2022/07/23 01:47:48;;;;;;;7.43;6.07;;;22.30;81.10;;;;;;5030338;28;20030;-67
2022/07/23 01:50:14;;;;;;;6.22;5.30;;;22.30;81.10;;;;;;5032675;28;20037;-67
2022/07/23 01:52:40;;;;;;;6.03;5.43;;;22.30;81.30;;;;;;5033199;28;20021;-67
2022/07/23 01:55:06;;;;;;;6.85;5.18;;;22.30;81.30;;;;;;5033026;28;20029;-69
2022/07/23 01:57:35;;;;;;;7.47;5.60;;;22.20;81.30;;;;;;5033103;28;20041;-69
2022/07/23 02:00:00;;;;;;;6.53;4.78;;;22.30;81.40;;;;;;5033177;28;20068;-67
2022/07/23 02:02:26;;;;;;;8.70;5.63;;;22.20;81.40;;;;;;5032653;28;20068;-67
2022/07/23 02:04:52;;;;;;;6.28;5.40;;;22.20;81.40;;;;;;5033081;28;20021;-68
2022/07/23 02:07:17;;;;;;;8.55;5.07;;;22.20;81.50;;;;;;5033178;28;20126;-67
2022/07/23 02:09:43;;;;;;;5.90;5.28;;;22.20;81.60;;;;;;5033022;28;20025;-68
2022/07/23 02:12:08;;;;;;;7.63;5.68;;;22.20;81.70;;;;;;5033172;28;20022;-67
2022/07/23 02:14:34;;;;;;;12.25;5.72;;;22.20;81.70;;;;;;5032928;28;20106;-68
2022/07/23 02:16:59;;;;;;;7.53;5.70;;;22.10;81.60;;;;;;5032949;28;20053;-67
2022/07/23 02:19:25;;;;;;;7.45;5.72;;;22.10;81.80;;;;;;5033016;28;20056;-67
2022/07/23 02:21:51;;;;;;;7.03;5.82;;;22.10;81.80;;;;;;5033180;28;20029;-67
2022/07/23 02:24:17;;;;;;;6.30;5.35;;;22.10;81.90;;;;;;5032945;28;20036;-67
2022/07/23 02:26:43;;;;;;;7.40;5.07;;;22.10;81.90;;;;;;5032905;28;20034;-67
2022/07/23 02:29:08;;;;;;;8.10;5.20;;;22.10;82.00;;;;;;5033025;28;20029;-72
2022/07/23 02:31:34;;;;;;;8.90;5.50;;;22.10;81.90;;;;;;5032467;28;20033;-70
2022/07/23 02:34:01;;;;;;;11.40;5.25;;;22.10;82.10;;;;;;5032858;28;20080;-68
2022/07/23 02:36:26;;;;;;;7.53;5.70;;;22.00;82.20;;;;;;5032545;28;20041;-70
2022/07/23 02:38:52;;;;;;;5.88;5.30;;;22.10;82.20;;;;;;5032868;28;20063;-67
2022/07/23 02:41:18;;;;;;;7.20;5.18;;;22.00;82.20;;;;;;5032679;28;20104;-67
2022/07/23 02:43:43;;;;;;;8.00;5.78;;;22.00;82.20;;;;;;5032840;28;20131;-67
2022/07/23 02:46:09;;;;;;;7.63;5.55;;;22.00;82.30;;;;;;5032725;28;20030;-68
2022/07/23 02:48:34;;;;;;;7.32;5.47;;;22.00;82.50;;;;;;5032849;28;20022;-70
2022/07/23 02:51:00;;;;;;;6.93;5.22;;;22.00;82.60;;;;;;5032865;28;20032;-71
2022/07/23 02:53:25;;;;;;;7.03;5.68;;;22.00;82.50;;;;;;5032739;28;20068;-67
2022/07/23 02:55:51;;;;;;;8.23;5.57;;;21.90;82.60;;;;;;5032671;28;20104;-72
2022/07/23 02:58:17;;;;;;;7.45;5.72;;;21.90;82.50;;;;;;5032959;28;20026;-68
2022/07/23 03:00:43;;;;;;;6.18;5.10;;;21.90;82.60;;;;;;5035928;28;20042;-68
2022/07/23 03:03:08;;;;;;;9.13;5.90;;;21.90;82.70;;;;;;5036516;28;20038;-69
2022/07/23 03:05:34;;;;;;;7.60;5.60;;;21.90;82.70;;;;;;5036228;28;20053;-72
2022/07/23 03:08:00;;;;;;;7.82;5.53;;;21.90;82.80;;;;;;5036343;28;20028;-73
2022/07/23 03:10:26;;;;;;;6.85;5.47;;;21.90;82.80;;;;;;5034940;28;20026;-72
2022/07/23 03:12:51;;;;;;;6.85;5.28;;;21.90;82.90;;;;;;5036086;28;20443;-72
2022/07/23 03:15:17;;;;;;;6.53;5.35;;;21.90;83.00;;;;;;5035933;28;20518;-73
2022/07/23 03:17:43;;;;;;;6.35;5.70;;;21.80;83.00;;;;;;5035867;28;20129;-74
2022/07/23 03:20:09;;;;;;;6.60;5.25;;;21.80;83.00;;;;;;5035985;28;20030;-72
2022/07/23 03:22:35;;;;;;;7.07;5.55;;;21.80;83.10;;;;;;5035580;28;20481;-72
2022/07/23 03:25:00;;;;;;;6.82;5.65;;;21.80;83.30;;;;;;5035893;28;20029;-67
2022/07/23 03:27:28;;;;;;;6.35;5.60;;;21.80;83.30;;;;;;5036024;28;20017;-69
2022/07/23 03:29:56;;;;;;;10.35;5.85;;;21.80;83.40;;;;;;5034406;28;20494;-68
2022/07/23 03:32:22;;;;;;;7.22;5.75;;;21.70;83.20;;;;;;5035368;28;20022;-68
2022/07/23 03:34:48;;;;;;;6.85;5.70;;;21.70;83.20;;;;;;5035685;28;20026;-70
2022/07/23 03:37:14;;;;;;;9.35;6.78;;;21.80;83.30;;;;;;5035579;28;20506;-69
2022/07/23 03:39:40;;;;;;;6.90;5.95;;;21.70;83.30;;;;;;5035723;28;20017;-73
2022/07/23 03:42:07;;;;;;;7.20;5.32;;;21.70;83.50;;;;;;5035454;28;20441;-71
2022/07/23 03:44:32;;;;;;;9.50;5.70;;;21.70;83.50;;;;;;5035165;28;20033;-71
2022/07/23 03:46:58;;;;;;;6.82;5.40;;;21.70;83.50;;;;;;5035476;28;20052;-73
2022/07/23 03:49:23;;;;;;;9.02;5.70;;;21.70;83.60;;;;;;5035488;28;20026;-72
2022/07/23 03:51:49;;;;;;;8.13;6.13;;;21.60;83.70;;;;;;5035286;28;20071;-72
2022/07/23 03:54:15;;;;;;;7.25;5.78;;;21.60;83.50;;;;;;5035418;28;20025;-72
2022/07/23 03:56:40;;;;;;;8.57;5.30;;;21.60;83.60;;;;;;5035215;28;20026;-72
2022/07/23 03:59:06;;;;;;;7.40;5.47;;;21.60;83.50;;;;;;5034874;28;20040;-72
2022/07/23 04:01:32;;;;;;;7.28;6.05;;;21.60;83.70;;;;;;5035167;28;20029;-72
2022/07/23 04:03:57;;;;;;;8.13;5.78;;;21.60;83.70;;;;;;5035333;28;20037;-72
2022/07/23 04:06:23;;;;;;;6.43;5.60;;;21.60;83.80;;;;;;5034977;28;20482;-70
2022/07/23 04:08:48;;;;;;;9.43;5.50;;;21.60;83.90;;;;;;5035034;28;20072;-72
2022/07/23 04:11:14;;;;;;;8.10;5.78;;;21.50;84.00;;;;;;5034468;28;20096;-71
2022/07/23 04:13:40;;;;;;;6.18;5.35;;;21.50;84.10;;;;;;5034703;28;20036;-73
2022/07/23 04:16:06;;;;;;;7.43;5.88;;;21.60;84.30;;;;;;5034876;28;20496;-72
2022/07/23 04:18:32;;;;;;;7.65;5.25;;;21.50;84.10;;;;;;5034441;28;20486;-72
2022/07/23 04:20:57;;;;;;;5.93;5.40;;;21.50;84.10;;;;;;5035020;28;20103;-73
2022/07/23 04:23:23;;;;;;;6.32;5.72;;;21.50;84.40;;;;;;5034680;28;20064;-72
2022/07/23 04:25:49;;;;;;;6.13;5.35;;;21.50;85.20;;;;;;5034826;28;20382;-73
2022/07/23 04:28:14;;;;;;;6.75;5.20;;;21.50;84.60;;;;;;5034165;28;20018;-72
2022/07/23 04:30:40;;;;;;;7.22;5.72;;;21.50;84.60;;;;;;5034666;28;20030;-72
2022/07/23 04:33:06;;;;;;;6.55;5.95;;;21.50;84.60;;;;;;5034357;28;20528;-73
2022/07/23 04:35:33;;;;;;;5.82;5.20;;;21.50;84.80;;;;;;5034446;28;20364;-73
2022/07/23 04:37:59;;;;;;;6.75;5.65;;;21.50;84.90;;;;;;5034401;28;20033;-73
2022/07/23 04:40:25;;;;;;;6.32;5.35;;;21.40;85.00;;;;;;5034558;28;20026;-73
2022/07/23 04:42:50;;;;;;;7.40;5.53;;;21.40;85.00;;;;;;5033865;28;20041;-72
2022/07/23 04:45:16;;;;;;;7.55;4.85;;;21.40;85.00;;;;;;5034440;28;20479;-72
2022/07/23 04:47:41;;;;;;;6.93;6.07;;;21.50;85.10;;;;;;5034246;28;20025;-70
2022/07/23 04:50:07;;;;;;;7.63;5.38;;;21.40;85.20;;;;;;5034404;28;20060;-73
2022/07/23 04:52:33;;;;;;;4.93;4.22;;;21.40;85.20;;;;;;5033044;28;20028;-72
2022/07/23 04:54:58;;;;;;;6.95;4.88;;;21.40;85.20;;;;;;5034080;28;20032;-73
2022/07/23 04:57:24;;;;;;;8.02;5.28;;;21.40;85.30;;;;;;5034190;28;20517;-72
2022/07/23 04:59:49;;;;;;;5.80;5.20;;;21.40;85.50;;;;;;5033965;28;20380;-72
2022/07/23 05:02:15;;;;;;;6.55;5.03;;;21.40;85.60;;;;;;5034737;28;20467;-72
2022/07/23 05:04:40;;;;;;;6.63;5.60;;;21.40;85.50;;;;;;5033537;28;20390;-72
2022/07/23 05:07:06;;;;;;;6.30;5.35;;;21.40;85.70;;;;;;5032054;28;20072;-68
2022/07/23 05:09:32;;;;;;;8.65;5.50;;;21.40;85.80;;;;;;5033494;28;20032;-73
2022/07/23 05:11:57;;;;;;;6.63;5.30;;;21.40;85.80;;;;;;5033640;28;20534;-70
2022/07/23 05:14:23;;;;;;;8.15;5.93;;;21.40;86.00;;;;;;5033747;28;20032;-69
2022/07/23 05:16:48;;;;;;;11.70;7.30;;;21.40;86.30;;;;;;5032958;28;20026;-73
2022/07/23 05:19:14;;;;;;;8.73;6.88;;;21.40;86.10;;;;;;5033519;28;20121;-73
2022/07/23 05:21:39;;;;;;;14.80;7.10;;;21.40;86.10;;;;;;5033688;28;20018;-73
2022/07/23 05:24:06;;;;;;;9.05;8.20;;;21.40;86.00;;;;;;5033735;28;20360;-72
2022/07/23 05:26:31;;;;;;;11.63;8.43;;;21.40;85.90;;;;;;5033270;28;20052;-71
2022/07/23 05:28:57;;;;;;;8.30;7.30;;;21.40;86.10;;;;;;5033544;28;20025;-73
2022/07/23 05:31:22;;;;;;;10.68;7.32;;;21.40;86.20;;;;;;5033533;28;20095;-72
2022/07/23 05:33:48;;;;;;;9.18;8.13;;;21.40;86.50;;;;;;5033615;28;20037;-73
2022/07/23 05:36:14;;;;;;;10.05;7.03;;;21.30;86.50;;;;;;5033275;28;20036;-73
2022/07/23 05:38:39;;;;;;;11.70;7.70;;;21.30;86.70;;;;;;5032160;28;20025;-72
2022/07/23 05:41:05;;;;;;;7.70;6.90;;;21.30;86.70;;;;;;5042352;28;20009;-73
2022/07/23 05:43:30;;;;;;;12.02;7.18;;;21.30;86.90;;;;;;5042240;28;20467;-66
2022/07/23 05:45:56;;;;;;;7.75;6.60;;;21.20;87.10;;;;;;5034858;28;20390;-73
2022/07/23 05:48:22;;;;;;;8.88;7.07;;;21.30;87.00;;;;;;5034215;28;20025;-71
2022/07/23 05:50:48;;;;;;;7.38;6.60;;;21.30;87.30;;;;;;5041857;28;20508;-72
2022/07/23 05:53:13;;;;;;;8.02;6.60;;;21.30;87.50;;;;;;5048182;28;20082;-73
2022/07/23 05:55:39;;;;;;;9.32;6.60;;;21.30;87.40;;;;;;5041763;28;20037;-73
2022/07/23 05:58:04;;;;;;;7.43;5.65;;;21.40;87.60;;;;;;5035337;28;20092;-73
2022/07/23 06:00:30;;;;;;;7.20;5.78;;;21.50;87.50;;;;;;5042886;28;20040;-73
2022/07/23 06:02:56;;;;;;;6.43;5.60;;;21.60;87.70;;;;;;5032277;28;20025;-72
2022/07/23 06:05:23;;;;;;;6.63;5.85;;;21.70;87.40;;;;;;5042670;28;20494;-66
2022/07/23 06:07:49;;;;;;;8.40;5.68;;;21.80;87.40;;;;;;5045339;28;20033;-72
2022/07/23 06:10:14;;;;;;;10.35;5.43;;;21.80;87.60;;;;;;5040196;28;20040;-72
2022/07/23 06:12:41;;;;;;;8.75;5.88;;;21.90;88.40;;;;;;5047809;28;20220;-68
2022/07/23 06:15:07;;;;;;;7.85;5.53;;;21.90;88.40;;;;;;5041956;28;20033;-66
2022/07/23 06:17:33;;;;;;;9.48;4.78;;;22.00;88.20;;;;;;5041730;28;20013;-72
2022/07/23 06:19:59;;;;;;;11.07;5.45;;;22.00;87.60;;;;;;5031789;28;20048;-68
2022/07/23 06:22:24;;;;;;;17.63;8.10;;;22.10;87.30;;;;;;5032444;28;20506;-67
2022/07/23 06:24:51;;;;;;;8.63;6.30;;;22.10;84.80;;;;;;5037024;28;20033;-66
2022/07/23 06:27:17;;;;;;;8.65;5.80;;;21.70;86.50;;;;;;5047838;28;20086;-67
2022/07/23 06:29:43;;;;;;;6.93;5.15;;;21.30;87.30;;;;;;5049126;28;20037;-67
2022/07/23 06:32:08;;;;;;;7.35;5.10;;;21.20;88.40;;;;;;5033538;28;20025;-66
2022/07/23 06:34:34;;;;;;;5.82;5.05;;;21.30;88.20;;;;;;5038323;28;20151;-66
2022/07/23 06:37:00;;;;;;;7.53;4.88;;;21.30;87.20;;;;;;5055991;28;20037;-67
2022/07/23 06:39:25;;;;;;;9.88;5.22;;;21.40;86.50;;;;;;5051637;28;20017;-66
2022/07/23 06:41:51;;;;;;;11.02;5.35;;;21.30;87.60;;;;;;5046170;28;20048;-66
2022/07/23 06:44:17;;;;;;;5.47;4.45;;;21.20;88.00;;;;;;5045623;28;20178;-67
2022/07/23 06:46:43;;;;;;;8.70;5.35;;;21.20;87.70;;;;;;5046998;28;20063;-66
2022/07/23 06:49:09;;;;;;;5.93;4.63;;;21.00;87.50;;;;;;5041944;28;20107;-66
2022/07/23 06:51:34;;;;;;;5.57;4.18;;;21.00;87.70;;;;;;5043841;28;20470;-66
2022/07/23 06:54:00;;;;;;;8.00;3.88;;;20.90;87.60;;;;;;5049009;28;20437;-66
2022/07/23 06:56:26;;;;;;;6.97;4.10;;;20.90;87.70;;;;;;5038497;28;20032;-66
2022/07/23 06:58:52;;;;;;;6.32;4.28;;;21.10;87.90;;;;;;5041895;28;20557;-66
2022/07/23 07:01:17;;;;;;;6.22;4.22;;;21.20;87.30;;;;;;5044062;28;20060;-66
2022/07/23 07:03:43;;;;;;;5.95;2.70;;;21.40;86.70;;;;;;5038086;28;20042;-66
2022/07/23 07:06:08;;;;;;;5.78;4.25;;;21.70;86.50;;;;;;5035621;28;20025;-67
2022/07/23 07:08:34;;;;;;;5.90;4.78;;;21.70;85.60;;;;;;5035486;28;20026;-66
2022/07/23 07:11:00;;;;;;;6.82;4.25;;;21.40;86.30;;;;;;5040668;28;20026;-66
2022/07/23 07:13:25;;;;;;;10.70;5.13;;;21.30;86.60;;;;;;5040286;28;20387;-66
2022/07/23 07:15:51;;;;;;;7.15;4.72;;;21.60;86.70;;;;;;5046506;28;20025;-66
2022/07/23 07:18:16;;;;;;;8.18;4.78;;;21.60;85.60;;;;;;5040941;28;20032;-66
2022/07/23 07:20:42;;;;;;;6.78;5.22;;;21.90;85.70;;;;;;5044493;28;20109;-67
2022/07/23 07:23:07;;;;;;;10.38;4.88;;;21.60;86.90;;;;;;5048887;28;20041;-65
2022/07/23 07:25:33;;;;;;;17.70;5.13;;;21.80;86.60;;;;;;5039479;28;20103;-69
2022/07/23 07:27:59;;;;;;;5.90;4.70;;;22.20;85.50;;;;;;5047908;28;20025;-69
2022/07/23 07:30:24;;;;;;;6.38;4.25;;;22.60;83.90;;;;;;5046212;28;20115;-69
2022/07/23 07:32:50;;;;;;;4.38;3.85;;;23.00;83.00;;;;;;5037668;28;20057;-73
2022/07/23 07:35:15;;;;;;;6.85;4.25;;;23.10;82.70;;;;;;5051569;28;20025;-69
2022/07/23 07:37:41;;;;;;;5.65;2.67;;;23.40;82.50;;;;;;5058963;28;20163;-71
2022/07/23 07:40:09;;;;;;;4.82;1.90;;;23.40;82.00;;;;;;5041379;28;20032;-69
2022/07/23 07:42:34;;;;;;;7.15;2.30;;;23.40;82.70;;;;;;5048883;28;20025;-69
2022/07/23 07:45:00;;;;;;;8.70;2.17;;;23.40;82.80;;;;;;5048976;28;20601;-69
2022/07/23 07:47:28;;;;;;;10.90;2.80;;;23.40;82.40;;;;;;5039402;28;20021;-69
2022/07/23 07:49:53;;;;;;;5.55;2.28;;;23.40;82.10;;;;;;5046490;28;20036;-70
2022/07/23 07:52:19;;;;;;;6.03;3.67;;;23.50;81.40;;;;;;5042860;28;20045;-69
2022/07/23 07:54:44;;;;;;;7.93;4.22;;;23.70;80.50;;;;;;5042184;28;20036;-72
2022/07/23 07:57:10;;;;;;;5.80;4.05;;;23.90;79.70;;;;;;5046222;28;20363;-73
2022/07/23 07:59:36;;;;;;;5.03;3.53;;;24.10;78.50;;;;;;5047029;28;20095;-70
2022/07/23 08:02:01;;;;;;;7.55;3.53;;;24.00;78.60;;;;;;5044089;28;20028;-74
2022/07/23 08:04:27;;;;;;;8.13;2.58;;;24.00;79.00;;;;;;5045365;28;20040;-70
2022/07/23 08:06:52;;;;;;;3.75;2.22;;;23.90;79.70;;;;;;5039219;28;20029;-73
2022/07/23 08:09:18;;;;;;;4.70;2.05;;;23.90;80.10;;;;;;5037201;28;20024;-72
2022/07/23 08:11:43;;;;;;;4.20;2.30;;;23.90;80.20;;;;;;5043276;28;20049;-73
2022/07/23 08:14:10;;;;;;;6.55;2.72;;;23.90;80.00;;;;;;5036032;28;20068;-69
2022/07/23 08:16:36;;;;;;;7.63;3.00;;;24.00;79.70;;;;;;5042299;28;20025;-73
2022/07/23 08:19:02;;;;;;;4.18;2.58;;;24.00;79.50;;;;;;5053532;28;20091;-70
2022/07/23 08:21:27;;;;;;;4.80;2.80;;;24.00;79.00;;;;;;5067813;28;20064;-73
2022/07/23 08:23:53;;;;;;;5.03;3.45;;;24.10;78.20;;;;;;5059468;28;20146;-70
2022/07/23 08:26:18;;;;;;;7.43;3.60;;;24.20;77.00;;;;;;5059416;28;20035;-73
2022/07/23 08:28:44;;;;;;;5.38;3.58;;;24.40;75.40;;;;;;5045271;28;20029;-71
2022/07/23 08:31:11;;;;;;;5.00;3.10;;;24.60;73.90;;;;;;5044261;28;20351;-71
2022/07/23 08:33:37;;;;;;;6.45;2.80;;;24.60;75.10;;;;;;5057689;28;20052;-72
2022/07/23 08:36:03;;;;;;;5.25;2.70;;;24.30;75.90;;;;;;5051736;28;20470;-70
2022/07/23 08:38:29;;;;;;;5.22;3.03;;;24.30;76.30;;;;;;5065839;28;20052;-71
2022/07/23 08:40:59;;;;;;;9.40;2.88;;;24.30;75.60;;;;;;5057466;28;20068;-68
2022/07/23 08:43:31;;;;;;;6.50;3.20;;;24.30;75.10;;;;;;5036764;28;20032;-69
2022/07/23 08:45:58;;;;;;;5.80;3.15;;;24.30;74.80;;;;;;5038734;28;20444;-68
2022/07/23 08:48:27;;;;;;;6.03;3.15;;;24.30;74.60;;;;;;5035964;28;20025;-70
2022/07/23 08:50:55;;;;;;;4.68;2.63;;;24.30;74.30;;;;;;5037395;28;20066;-69
2022/07/23 08:53:23;;;;;;;5.50;3.42;;;24.40;74.50;;;;;;5038004;28;20025;-70
2022/07/23 08:55:51;;;;;;;5.13;3.47;;;24.60;73.40;;;;;;5046255;28;20486;-70
2022/07/23 08:58:18;;;;;;;7.18;3.55;;;24.70;72.70;;;;;;5036747;28;20032;-74
2022/07/23 09:00:45;;;;;;;4.97;2.67;;;24.90;71.10;;;;;;5040838;28;20041;-72
2022/07/23 09:03:20;;;;;;;3.78;2.42;;;24.80;72.40;;;;;;5044874;28;20067;-72
2022/07/23 09:05:46;;;;;;;6.32;2.70;;;24.80;72.60;;;;;;5038945;28;20068;-74
2022/07/23 09:08:18;;;;;;;5.53;2.38;;;24.60;73.40;;;;;;5037560;28;20402;-74
2022/07/23 09:10:57;;;;;;;3.88;2.08;;;24.60;74.00;;;;;;5049657;28;20020;-72
2022/07/23 09:13:37;;;;;;;4.22;2.45;;;24.60;73.60;;;;;;5049144;28;20432;-75
2022/07/23 09:16:19;;;;;;;5.40;2.28;;;24.70;72.90;;;;;;5043856;28;20025;-73
2022/07/23 09:18:49;;;;;;;5.82;1.75;;;24.70;72.50;;;;;;5037533;28;20021;-74
2022/07/23 09:21:30;;;;;;;6.30;1.75;;;24.70;72.70;;;;;;5048749;28;20433;-72
2022/07/23 09:24:03;;;;;;;3.78;1.80;;;24.70;73.10;;;;;;5045506;28;20048;-74
2022/07/23 09:26:41;;;;;;;4.55;2.53;;;24.80;72.50;;;;;;5047018;28;20075;-73
2022/07/23 09:29:09;;;;;;;7.45;1.70;;;24.70;72.70;;;;;;5054970;28;20091;-73
2022/07/23 09:31:50;;;;;;;4.45;2.38;;;24.70;73.10;;;;;;5064435;28;20111;-74
2022/07/23 09:34:16;;;;;;;3.28;2.40;;;24.90;71.30;;;;;;5066096;28;20052;-73
2022/07/23 09:36:42;;;;;;;4.53;3.17;;;24.90;71.10;;;;;;5043400;28;20028;-69
2022/07/23 09:39:08;;;;;;;4.82;1.77;;;25.10;69.80;;;;;;5053567;28;20024;-71
2022/07/23 09:41:38;;;;;;;3.78;1.42;;;24.90;70.90;;;;;;5056938;28;20071;-69
2022/07/23 09:44:18;;;;;;;6.20;1.95;;;24.90;71.60;;;;;;5049097;28;20033;-70
2022/07/23 09:46:46;;;;;;;7.55;2.80;;;24.80;71.90;;;;;;5048575;28;20433;-69
2022/07/23 09:49:21;;;;;;;5.30;3.22;;;24.90;70.80;;;;;;5039987;28;20060;-68
2022/07/23 09:51:56;;;;;;;4.20;2.63;;;25.10;69.90;;;;;;5037435;28;20045;-71
2022/07/23 09:54:24;;;;;;;3.78;2.40;;;25.10;69.80;;;;;;5037978;28;20059;-68
2022/07/23 09:56:51;;;;;;;4.60;1.75;;;25.00;70.70;;;;;;5034998;28;20105;-68
2022/07/23 09:59:18;;;;;;;5.18;2.67;;;24.90;71.40;;;;;;5040766;28;20418;-71
2022/07/23 10:01:44;;;;;;;4.78;2.97;;;25.10;70.70;;;;;;5040001;28;20025;-69
2022/07/23 10:04:11;;;;;;;5.13;3.30;;;25.20;70.00;;;;;;5051288;28;20022;-68
2022/07/23 10:06:40;;;;;;;6.13;3.80;;;25.30;69.50;;;;;;5049578;28;20017;-72
2022/07/23 10:09:08;;;;;;;3.92;3.10;;;25.40;68.40;;;;;;5044851;28;20063;-69
2022/07/23 10:11:34;;;;;;;4.18;3.40;;;25.50;67.80;;;;;;5050182;28;20355;-68
2022/07/23 10:14:04;;;;;;;3.60;3.30;;;25.50;68.10;;;;;;5052340;28;20025;-69
2022/07/23 10:16:29;;;;;;;4.40;2.95;;;25.50;67.70;;;;;;5037916;28;21220;-69
2022/07/23 10:18:55;;;;;;;7.05;3.55;;;25.50;68.00;;;;;;5041387;28;20052;-69
2022/07/23 10:21:49;;;;;;;3.67;2.90;;;25.50;68.30;;;;;;5062225;28;20024;-67
2022/07/23 10:24:23;;;;;;;4.72;2.42;;;25.50;69.20;;;;;;5036473;28;20502;-68
2022/07/23 10:26:58;;;;;;;3.15;2.33;;;25.30;70.00;;;;;;5044177;28;20063;-68
2022/07/23 10:29:46;;;;;;;6.50;2.25;;;25.30;69.30;;;;;;5053945;28;20112;-67
2022/07/23 10:32:17;;;;;;;4.65;2.55;;;25.30;69.60;;;;;;5036188;28;20025;-68
2022/07/23 10:34:58;;;;;;;3.45;1.27;;;25.30;70.10;;;;;;5057214;28;20025;-68
2022/07/23 10:37:39;;;;;;;2.53;1.50;;;25.10;71.60;;;;;;5041131;28;20036;-68
2022/07/23 10:40:23;;;;;;;5.27;2.20;;;25.10;72.40;;;;;;5041571;28;20044;-68
2022/07/23 10:42:51;;;;;;;4.05;2.38;;;25.10;73.20;;;;;;5046501;28;20458;-68
2022/07/23 10:45:32;;;;;;;6.00;2.30;;;25.10;72.90;;;;;;5040135;28;20032;-69
2022/07/23 10:48:25;;;;;;;3.65;1.90;;;25.00;73.10;;;;;;5038826;28;20025;-68
2022/07/23 10:51:13;;;;;;;6.45;2.35;;;25.10;72.30;;;;;;5040404;28;20032;-69
2022/07/23 10:53:51;;;;;;;4.35;2.30;;;25.20;70.90;;;;;;5041870;28;20075;-69
2022/07/23 10:56:17;;;;;;;4.20;1.70;;;25.10;71.20;;;;;;5044470;28;20644;-67
2022/07/23 10:58:48;;;;;;;4.32;1.80;;;25.00;71.40;;;;;;5036468;28;20033;-66
2022/07/23 11:01:43;;;;;;;3.70;1.90;;;25.10;70.80;;;;;;5030092;28;20028;-68
2022/07/23 11:04:09;;;;;;;2.97;1.90;;;25.10;71.00;;;;;;5031101;28;20498;-68
2022/07/23 11:06:49;;;;;;;3.65;2.00;;;25.00;70.50;;;;;;5041439;28;20053;-68
2022/07/23 11:09:43;;;;;;;2.63;1.55;;;25.00;70.60;;;;;;5040538;28;20108;-69
2022/07/23 11:12:21;;;;;;;5.95;1.92;;;25.00;71.00;;;;;;5039640;28;20030;-72
2022/07/23 11:15:13;;;;;;;10.00;2.33;;;25.00;71.30;;;;;;5037868;28;20036;-71
2022/07/23 11:17:50;;;;;;;5.13;2.85;;;25.00;72.10;;;;;;5037766;28;20029;-71
2022/07/23 11:20:21;;;;;;;3.70;2.58;;;25.10;74.00;;;;;;5050296;28;20079;-71
2022/07/23 11:22:54;;;;;;;6.20;2.85;;;25.00;75.20;;;;;;5046555;28;20025;-70
2022/07/23 11:25:22;;;;;;;7.53;2.83;;;25.10;76.30;;;;;;5037475;28;20033;-69
2022/07/23 11:27:50;;;;;;;5.53;2.30;;;25.10;78.90;;;;;;5037669;28;20032;-71
2022/07/23 11:30:28;;;;;;;6.00;2.53;;;25.10;78.10;;;;;;5045994;28;20040;-72
2022/07/23 11:33:13;;;;;;;3.40;2.08;;;25.10;78.10;;;;;;5035434;28;20026;-71
2022/07/23 11:35:41;;;;;;;6.20;2.38;;;25.10;76.90;;;;;;5031576;28;20499;-73
2022/07/23 11:38:21;;;;;;;5.38;2.47;;;25.10;76.60;;;;;;5042209;28;20051;-71
2022/07/23 11:40:49;;;;;;;5.22;2.33;;;25.10;75.90;;;;;;5046794;28;20029;-71
2022/07/23 11:43:17;;;;;;;3.13;2.03;;;25.10;74.80;;;;;;5034990;28;20034;-73
2022/07/23 11:45:45;;;;;;;3.28;1.55;;;25.10;73.60;;;;;;5038167;28;20029;-70
2022/07/23 11:48:26;;;;;;;9.38;5.20;;;25.20;71.80;;;;;;5033098;28;20118;-69
2022/07/23 11:50:53;;;;;;;10.57;5.43;;;25.20;73.10;;;;;;5036902;28;20483;-69
2022/07/23 11:53:31;;;;;;;7.68;3.95;;;25.20;73.30;;;;;;5036629;28;20022;-68
2022/07/23 11:56:12;;;;;;;5.65;4.35;;;25.20;71.90;;;;;;5038250;28;20032;-66
2022/07/23 11:58:39;;;;;;;4.22;3.08;;;25.20;71.10;;;;;;5057569;28;20025;-72
2022/07/23 12:01:05;;;;;;;3.80;2.33;;;25.20;71.50;;;;;;5040213;28;20429;-69
2022/07/23 12:03:31;;;;;;;5.05;1.98;;;25.30;69.50;;;;;;5037499;28;20037;-68
2022/07/23 12:05:57;;;;;;;5.15;2.40;;;25.30;68.40;;;;;;5040365;28;20143;-71
2022/07/23 12:08:23;;;;;;;3.90;1.48;;;25.30;69.80;;;;;;5041505;28;20087;-73
2022/07/23 12:10:49;;;;;;;3.15;1.25;;;25.40;67.20;;;;;;5049130;28;20021;-72
2022/07/23 12:13:18;;;;;;;2.97;1.48;;;25.50;65.10;;;;;;5037521;28;20025;-74
2022/07/23 12:15:48;;;;;;;3.10;1.80;;;25.40;68.40;;;;;;5037614;28;20025;-73
2022/07/23 12:18:25;;;;;;;3.13;1.80;;;25.40;69.10;;;;;;5039819;28;20036;-73
2022/07/23 12:20:53;;;;;;;5.03;1.90;;;25.30;69.20;;;;;;5052926;28;20028;-73
2022/07/23 12:23:20;;;;;;;1.83;1.25;;;25.30;69.10;;;;;;5054632;28;20039;-72
2022/07/23 12:25:47;;;;;;;4.80;1.63;;;25.30;69.20;;;;;;5045156;28;20533;-73
2022/07/23 12:28:19;;;;;;;2.20;1.40;;;25.30;68.10;;;;;;5040863;28;20466;-70
2022/07/23 12:30:49;;;;;;;2.95;1.25;;;25.30;68.00;;;;;;5050558;28;20037;-74
2022/07/23 12:33:22;;;;;;;3.17;1.35;;;25.30;67.40;;;;;;5037029;28;20018;-71
2022/07/23 12:35:48;;;;;;;3.45;1.58;;;25.30;67.70;;;;;;5037065;28;20032;-72
2022/07/23 12:38:16;;;;;;;3.50;1.60;;;25.40;67.90;;;;;;5034785;28;20021;-72
2022/07/23 12:40:51;;;;;;;2.65;1.48;;;25.30;68.10;;;;;;5040782;28;20052;-71
2022/07/23 12:43:25;;;;;;;4.15;1.60;;;25.30;67.80;;;;;;5051856;28;20029;-71
2022/07/23 12:45:55;;;;;;;2.38;1.45;;;25.40;67.90;;;;;;5049044;28;20029;-71
2022/07/23 12:48:28;;;;;;;2.67;1.20;;;25.50;66.20;;;;;;5039227;28;20099;-72